AirNav   Air Wisconsin pilot careers
 
 585 users online  

KNFG Camp Pendleton MCAS (Munn Field) Airport
Oceanside, California, USA

GOING TO OCEANSIDE?


FAA INFORMATION EFFECTIVE 29 MARCH 2018

Location

FAA Identifier: NFG
Lat/Long: 33-18-04.5204N / 117-21-18.5867W
33-18.075340N / 117-21.309778W
33.3012557 / -117.3551630
(estimated)
Elevation: 78 ft. / 24 m (estimated)
Variation: 13E (2000)
From city: 6 miles N of OCEANSIDE, CA
Time zone: UTC -7 (UTC -8 during Standard Time)
Zip code: 92054

Airport Operations

Airport use: Private use. Permission required prior to landing
Activation date: 12/1945
Control tower: yes
ARTCC: LOS ANGELES CENTER
FSS: SAN DIEGO FLIGHT SERVICE STATION
NOTAMs facility: NFG (NOTAM-D service available)
Attendance: MON-THUR 1600-0800Z++, ALL FRI 1600-0100Z++
CLSD SAT, SUN AND HOL. FREQ OPR HR MOD AND NGT EXER RY RSTD, CK BY CALLING MCAS FLT CLNC AT 760-725-8016. MCAS FLT CLNC MANNED 1 HR PRIOR OPR HR DSN 365-8016/3804, C760-725-8016/3804. HI DENSITY TFC IN CLASS D AIRSPACE 1900-2300Z++, TENANT ACFT HAVE PRIORITY FOR LCL PAT OPR. SEE FLIP AP/1 SUPPLEMENTARY ARPT INFO.
Pattern altitude: TFC PAT: RGT TFC RY 21. F/W 1100 FT, R/W 600 FT, RISING TERRAIN ALL QUAD TO 3200 FT. ALL ACFT USE LDG LGT IN TFC PAT AFTER SS AND IN IMC.
Segmented circle: no
Lights: PCL ON TOWER 128.775 AND 340.2. WHEN TWR CLSD, ACTVT SALSF RWY 21; PAPI RWY 03 & 21; HIRL RWY 03/21 - 128.775.
Beacon: white-white-green (lighted military airport)
Operates sunset to sunrise.

Airport Communications

ATIS: 285.45
CAMP PENDLETON GROUND: 134.675 360.2 [1600-0800Z++ MON-THUR, 1600-0100Z++ FRI; CLSD SAT, SUN AND HOL.]
CAMP PENDLETON TOWER: 128.775 340.2 271.6 [1600-0800Z++ MON-THUR, 1600-0100Z++ FRI; CLSD SAT, SUN AND HOL.]
SOCAL APPROACH: 127.3 41.95FM
SOCAL DEPARTURE: 127.3
CLEARANCE DELIVERY: 134.675 271.6
BASE OPS: 279.3
EMERG: 121.5 243.0
LEGOZ STAR: 127.4
MCB RANGE CON: 123.2(LONG RIFLE) 310.3(LONG RIFLE)
PMSV: 344.6
PMSV METRO: 342.4
RADAR: 128.45 236.3
TRNG: 123.4(S LONGRIFLE & CRESTLINE)
WX ASOS at OKB (5 nm S): 127.8 (760-439-9683)
WX AWOS-3P at L18 (6 nm NE): 118.425 (760-723-6073)
WX ASOS at CRQ (11 nm S): PHONE 760-930-0864
WX AWOS-3 at F70 (20 nm NE): 119.025 (951-696-1018)
  • FOR CLNC DEL WHEN ATCT CLSD CALL SOCAL APCH (800) 448-3724.
  • ILS/RADAR - RADAR - SEE TERMINAL FLIP FOR RADAR MINIMA.

Nearby radio navigation aids

VOR radial/distance  VOR name  Freq  Var
OCNr026/4.8OCEANSIDE VORTAC115.3015E
ELBr126/29.3EL TORO VOR/DME117.2014E
HDFr183/(29.7)HOMELAND VOR113.4014E
MZBr333/31.8MISSION BAY VORTAC117.8015E
PDZr152/38.0PARADISE VORTAC112.2015E
RALr159/(39.5)RIVERSIDE VOR112.4014E
JLIr269/39.8JULIAN VORTAC114.0015E

Airport Services

Runway Information

Runway 3/21

Dimensions: 6005 x 221 ft. / 1830 x 67 m
Surface: asphalt
Weight bearing capacity: 
PCN 80 /F/C/W/T
Runway edge lights: high intensity
RUNWAY 3  RUNWAY 21
Latitude: 33-17.720015N33-18.430665N
Longitude: 117-21.720390W117-20.899167W
Elevation: 60.7 ft.77.4 ft.
Traffic pattern: leftright
Visual slope indicator: 4-light PAPI on right (4.00 degrees glide path)4-light PAPI on left (3.50 degrees glide path)
Approach lights: SALSF
Runway end identifier lights: nono
Touchdown point: yes, no lightsyes, no lights

Airport Ownership and Management from official FAA records

Ownership: U.S. Navy
Owner: US NAVY
OCEANOGRAPHIC OFC - CODE 3142
WASHINGTON, DC 20373

Additional Remarks

MISC: WX FCST AVBL 2 HR PN.
CAUTION: NUMEROUS HAZ TO FLT/GND OPR. EXTV VFR TFC IN CLASS D AIRSPACE. HI DENSITY TFC IN CLASS D AIRSPACE 1900-2300Z++. TENANT ACFT HAVE PRIORITY FOR LCL PAT OPR. SEE FLIP AP/1 SUPPLEMENTARY ARPT INFO.
HELIPADS P1, P2, P3, P4 DIMENSIONS 137 FT BY 137 FT. E2 AND F2 DIMENSIONS 133 FT BY 133 FT.
LCL-BASED AND NON-TENANT ACFT ARE AUTH TO CONDUCT ONE CLSD FLD FULL STOP ARR AND/OR ONE CLSD FLD DEP.
FUEL: J5.
TRAN ALERT: NO AMC FLEET SVC AVBL. ALCE TEAM RQR FOR ALL AMC FLT. LTD TRAN SVC, NO TIE-DOWN, OIL/LABORATORY ANALYSIS OR TRAN MAINT SVC AVBL. NO SHUTTLE SVC AVBL. ALL VIP ACFT CTC AIRFIELD OPS ON PTD 15 MIN PRIOR TO ARR. TRAN CREWS RESPONSIBLE FOR COLD REFUEL OF THEIR OWN ACFT.
RSTD: HVY F/W ACFT (C5, C141, C17) CTC MCAS OPS CONCERNING WT BRG CAPACITY. HVY ACFT, FULL STOP LDG ONLY. FOR USE OF MCB RANGE FACILITIES (LZ/DZ/CAL SITE/VSTOL, ETC.) CTC MCB RANGE CON SKED DSN 365-4219/3510, C760-725-4219/3510.
NS ABTMT - AVOID OVFT MCB RANCH HOUSE LCTD 2000' NE APCH END RWY 21.
RSTD: PPR 24 HR PN EXE FOR HOT REFUL OR PAT WORK, AG AND CSTMS SVC ARE AVBL UPON REQ WITH 48 HRS NTC. MCAS FLT CLNC DSN 365-8016/8026, C760-725-8016/8026, 1600-0100Z++MON-FRI. LTD RAMP SPACE, ACFT PPR STRICTLY ENFORCED FOR ALL PAX, PARTS, CARGO AND TRAN ACFT.
SERVICE-JASU-NC-8/NC-10 PRIOR ARNG RQR WITH MCAS VAL DSN 365-8027 C760-725-8027.

Instrument Procedures

NOTE: All procedures below are presented as PDF files. If you need a reader for these files, you should download the free Adobe Reader.

NOT FOR NAVIGATION. Please procure official charts for flight.
FAA instrument procedures published for use from 29 March 2018 at 0901Z to 26 April 2018 at 0900Z.

 
STARs - Standard Terminal Arrivals
LEGOZ TWO (RNAV)   2 pages: [1] [2] (312KB)
 
IAPs - Instrument Approach Procedures
RNAV (GPS) RWY 21   download (88KB)
VOR/DME OR TACAN Y RWY 21   download (105KB)
TACAN RWY 03   download (114KB)
TACAN Z RWY 21   download (106KB)
COPTER TACAN RWY 21   download (90KB)
Radar Approach Procedures available   download
 
BEACH SEVEN (OBSTACLE)   download (57KB)
BULLDOG NINE (OBSTACLE)   download (95KB)
CORRI ONE (OBSTACLE)   download (84KB)
MUNN ONE (OBSTACLE)   download (63KB)
NOTE: Special Take-Off Minimums/Departure Procedures apply   download

Other nearby airports with instrument procedures:

KOKB - Bob Maxwell Memorial Airfield (5 nm S)
L18 - Fallbrook Community Airpark (6 nm NE)
KCRQ - Mc Clellan-Palomar Airport (11 nm S)
F70 - French Valley Airport (20 nm NE)
KRNM - Ramona Airport (27 nm SE)
 
Loc | Ops | Rwys | IFR | FBO | Links
Com | Nav | Svcs | Stats | Notes

San Bernardino International Airport Authority
 
Area around KNFG (Camp Pendleton MCAS (Munn Field) Airport)
 
Road maps at: MapQuest Bing Google
 
Aerial photo
No photo
 
Sectional chart

 
Airport diagram
Diagram of KNFG (Camp Pendleton MCAS (Munn Field) Airport)
Download PDF
of official airport diagram from the FAA

 
Airport distance calculator
Flying to Camp Pendleton MCAS (Munn Field) Airport? Find the distance to fly.

From to KNFG

Sunrise and sunset
Times for 23-Apr-2018
 Local
(UTC-7)
 Zulu
(UTC)
Morning civil twilight05:4512:45
Sunrise06:1113:11
Sunset19:2502:25
Evening civil twilight19:5102:51

Current date and time
Zulu (UTC)  24-Apr-2018 04:58:37
Local (UTC-7)  23-Apr-2018 21:58:37
 
METAR
KNFG 
2nm SE 
240355Z 00000KT 7SM SCT010 BKN200 12/11 A3001 RMK AO2 SLP160 T01220111 $
KOKB 
5nm S 
240452Z AUTO 00000KT 7SM CLR 13/11 A3001 RMK AO2 SLP163 T01280106
KNXF 
5nm W 
240356Z AUTO 00000KT 9SM CLR 13/11 A3001 RMK AO2 SLP249 T01330111 $
KL18 
6nm NE 
240455Z AUTO 00000KT 10SM CLR 13/11 A3002 RMK AO2
KCRQ 
11nm S 
240453Z 00000KT 8SM CLR 14/12 A3001 RMK AO2 SLP160 T01440122
KF70 
20nm NE 
240435Z AUTO 00000KT 10SM CLR 17/09 A3003 RMK AO1
TAF
KNFG 
2nm SE 
2403/2503 21006KT 9999 FEW250 QNH2989INS BECMG 2405/2407 VRB05KT 6000 BR BKN010 QNH2989INS TEMPO 2407/2413 4800 BR OVC005 FM241630 27010KT 9999 FEW010 SCT250 QNH2997INS T10/2413Z T25/2422Z
KCRQ 
11nm S 
240417Z 2404/2424 VRB04KT P6SM SKC FM240700 VRB04KT 5SM BR BKN005 FM241000 VRB04KT 1SM BR OVC003 FM241500 VRB04KT 2SM BR OVC006 FM241700 VRB04KT 6SM BR SCT007 SCT250 FM241900 27008KT P6SM SCT250
NOTAMs
Click for the latest NOTAMs
NOTAMs are issued by the DoD/FAA and will open in a separate window not controlled by AirNav.

 

 
 

Would you like to see your business listed on this page?

 If your business provides an interesting product or service to pilots, flight crews, aircraft, or users of the Camp Pendleton MCAS (Munn Field) Airport, you should consider listing it here.  To start the listing process, click on the button below
 
Add a business
 

Other Pages about Camp Pendleton MCAS (Munn Field) Airport

Update a link
 
Copyright © AirNav, LLC. All rights reserved. Privacy Policy  Contact